Time,TemperatureF,DewpointF,PressureIn,WindDirection,WindDirectionDegrees,WindSpeedMPH,WindSpeedGustMPH,Humidity,HourlyPrecipIn,Conditions,Clouds,dailyrainin,SoftwareType,DateUTC
2013-11-09 00:06:00,-999.0,-99.9,29.85,North,-999,-999.0,-999.0,-999,0.00,,,0.00,weatherlink.com 1.10,2013-11-09 07:06:00,
2013-11-09 00:21:00,-999.0,-99.9,29.85,North,-999,-999.0,-999.0,-999,0.00,,,0.00,weatherlink.com 1.10,2013-11-09 07:21:00,
2013-11-09 00:36:00,-999.0,-99.9,29.86,North,-999,-999.0,-999.0,-999,0.00,,,0.00,weatherlink.com 1.10,2013-11-09 07:36:00,
2013-11-09 00:51:00,-999.0,-99.9,29.86,North,-999,-999.0,-999.0,-999,0.00,,,0.00,weatherlink.com 1.10,2013-11-09 07:51:00,
2013-11-09 01:06:00,-999.0,-99.9,29.86,North,-999,-999.0,-999.0,-999,0.00,,,0.00,weatherlink.com 1.10,2013-11-09 08:06:00,
2013-11-09 01:21:00,-999.0,-99.9,29.85,North,-999,-999.0,-999.0,-999,0.00,,,0.00,weatherlink.com 1.10,2013-11-09 08:21:00,
2013-11-09 01:36:00,-999.0,-99.9,29.85,North,-999,-999.0,-999.0,-999,0.00,,,0.00,weatherlink.com 1.10,2013-11-09 08:36:00,
2013-11-09 01:51:00,-999.0,-99.9,29.85,North,-999,-999.0,-999.0,-999,0.00,,,0.00,weatherlink.com 1.10,2013-11-09 08:51:00,
2013-11-09 02:06:00,-999.0,-99.9,29.85,North,-999,-999.0,-999.0,-999,0.00,,,0.00,weatherlink.com 1.10,2013-11-09 09:06:00,
2013-11-09 02:21:00,-999.0,-99.9,29.85,North,-999,-999.0,-999.0,-999,0.00,,,0.00,weatherlink.com 1.10,2013-11-09 09:21:00,
2013-11-09 02:36:00,-999.0,-99.9,29.84,North,-999,-999.0,-999.0,-999,0.00,,,0.00,weatherlink.com 1.10,2013-11-09 09:36:00,
2013-11-09 02:52:00,-999.0,-99.9,29.85,North,-999,-999.0,-999.0,-999,0.00,,,0.00,weatherlink.com 1.10,2013-11-09 09:52:00,
2013-11-09 03:07:00,-999.0,-99.9,29.84,North,-999,-999.0,-999.0,-999,0.00,,,0.00,weatherlink.com 1.10,2013-11-09 10:07:00,
2013-11-09 03:22:00,-999.0,-99.9,29.84,North,-999,-999.0,-999.0,-999,0.00,,,0.00,weatherlink.com 1.10,2013-11-09 10:22:00,
2013-11-09 03:38:00,-999.0,-99.9,29.84,North,-999,-999.0,-999.0,-999,0.00,,,0.00,weatherlink.com 1.10,2013-11-09 10:38:00,
2013-11-09 03:52:00,-999.0,-99.9,29.84,North,-999,-999.0,-999.0,-999,0.00,,,0.00,weatherlink.com 1.10,2013-11-09 10:52:00,
2013-11-09 04:07:00,-999.0,-99.9,29.85,North,-999,-999.0,-999.0,-999,0.00,,,0.00,weatherlink.com 1.10,2013-11-09 11:07:00,
2013-11-09 04:22:00,-999.0,-99.9,29.86,North,-999,-999.0,-999.0,-999,0.00,,,0.00,weatherlink.com 1.10,2013-11-09 11:22:00,
2013-11-09 04:37:00,-999.0,-99.9,29.86,North,-999,-999.0,-999.0,-999,0.00,,,0.00,weatherlink.com 1.10,2013-11-09 11:37:00,
2013-11-09 04:52:00,-999.0,-99.9,29.87,North,-999,-999.0,-999.0,-999,0.00,,,0.00,weatherlink.com 1.10,2013-11-09 11:52:00,
2013-11-09 05:07:00,-999.0,-99.9,29.87,North,-999,-999.0,-999.0,-999,0.00,,,0.00,weatherlink.com 1.10,2013-11-09 12:07:00,
2013-11-09 05:22:00,-999.0,-99.9,29.87,North,-999,-999.0,-999.0,-999,0.00,,,0.00,weatherlink.com 1.10,2013-11-09 12:22:00,
2013-11-09 05:37:00,-999.0,-99.9,29.88,North,-999,-999.0,-999.0,-999,0.00,,,0.00,weatherlink.com 1.10,2013-11-09 12:37:00,
2013-11-09 05:52:00,-999.0,-99.9,29.88,North,-999,-999.0,-999.0,-999,0.00,,,0.00,weatherlink.com 1.10,2013-11-09 12:52:00,
2013-11-09 06:07:00,-999.0,-99.9,29.89,North,-999,-999.0,-999.0,-999,0.00,,,0.00,weatherlink.com 1.10,2013-11-09 13:07:00,
2013-11-09 06:23:00,-999.0,-99.9,29.89,North,-999,-999.0,-999.0,-999,0.00,,,0.00,weatherlink.com 1.10,2013-11-09 13:23:00,
2013-11-09 06:38:00,-999.0,-99.9,29.90,North,-999,-999.0,-999.0,-999,0.00,,,0.00,weatherlink.com 1.10,2013-11-09 13:38:00,
2013-11-09 06:53:00,-999.0,-99.9,29.90,North,-999,-999.0,-999.0,-999,0.00,,,0.00,weatherlink.com 1.10,2013-11-09 13:53:00,
2013-11-09 07:08:00,27.7,25.0,29.92,West,263,0.0,0.0,89,0.00,,,0.00,weatherlink.com 1.10,2013-11-09 14:08:00,
2013-11-09 07:23:00,28.3,25.0,29.93,WNW,283,0.0,0.0,87,0.00,,,0.00,weatherlink.com 1.10,2013-11-09 14:23:00,
2013-11-09 07:38:00,29.6,26.0,29.95,WNW,300,0.0,1.0,85,0.00,,,0.00,weatherlink.com 1.10,2013-11-09 14:38:00,
2013-11-09 07:53:00,31.1,27.0,29.96,West,266,0.0,0.0,83,0.00,,,0.00,weatherlink.com 1.10,2013-11-09 14:53:00,
2013-11-09 08:08:00,32.9,27.0,29.97,WNW,292,0.0,1.0,80,0.00,,,0.00,weatherlink.com 1.10,2013-11-09 15:08:00,
2013-11-09 08:23:00,33.9,29.0,29.98,SW,234,0.0,0.0,82,0.00,,,0.00,weatherlink.com 1.10,2013-11-09 15:23:00,
2013-11-09 08:38:00,35.0,30.0,29.99,SW,231,0.0,0.0,81,0.00,,,0.00,weatherlink.com 1.10,2013-11-09 15:38:00,
2013-11-09 08:53:00,36.9,30.0,29.98,NW,304,0.0,0.0,77,0.00,,,0.00,weatherlink.com 1.10,2013-11-09 15:53:00,
2013-11-09 09:08:00,38.5,31.0,29.99,SW,233,0.0,0.0,74,0.00,,,0.00,weatherlink.com 1.10,2013-11-09 16:08:00,
2013-11-09 09:23:00,41.1,31.0,30.00,WNW,285,0.0,1.0,68,0.00,,,0.00,weatherlink.com 1.10,2013-11-09 16:23:00,
2013-11-09 09:38:00,44.8,32.0,30.01,SSE,158,0.0,1.0,62,0.00,,,0.00,weatherlink.com 1.10,2013-11-09 16:38:00,
2013-11-09 09:54:00,46.4,32.0,30.02,SSW,211,0.0,1.0,57,0.00,,,0.00,weatherlink.com 1.10,2013-11-09 16:54:00,
2013-11-09 10:09:00,47.4,31.0,30.02,NNW,337,0.0,1.0,53,0.00,,,0.00,weatherlink.com 1.10,2013-11-09 17:09:00,
2013-11-09 10:24:00,49.0,31.0,30.02,South,191,0.0,1.0,51,0.00,,,0.00,weatherlink.com 1.10,2013-11-09 17:24:00,
2013-11-09 10:39:00,49.5,26.0,30.02,NE,37,0.0,7.0,41,0.00,,,0.00,weatherlink.com 1.10,2013-11-09 17:39:00,
2013-11-09 10:54:00,50.0,26.0,30.02,WNW,302,2.0,8.0,40,0.00,,,0.00,weatherlink.com 1.10,2013-11-09 17:54:00,
2013-11-09 11:09:00,50.6,26.0,30.02,WNW,288,0.0,8.0,38,0.00,,,0.00,weatherlink.com 1.10,2013-11-09 18:09:00,
2013-11-09 11:24:00,51.8,27.0,30.01,NNE,29,4.0,8.0,38,0.00,,,0.00,weatherlink.com 1.10,2013-11-09 18:24:00,
2013-11-09 11:39:00,51.0,26.0,30.02,NW,312,3.0,9.0,38,0.00,,,0.00,weatherlink.com 1.10,2013-11-09 18:39:00,
2013-11-09 11:54:00,52.7,27.0,30.01,NW,307,0.0,5.0,37,0.00,,,0.00,weatherlink.com 1.10,2013-11-09 18:54:00,
2013-11-09 12:09:00,54.9,28.0,30.01,South,181,0.0,5.0,35,0.00,,,0.00,weatherlink.com 1.10,2013-11-09 19:09:00,
2013-11-09 12:24:00,56.0,27.0,30.01,ESE,118,1.0,3.0,33,0.00,,,0.00,weatherlink.com 1.10,2013-11-09 19:24:00,
2013-11-09 12:39:00,56.5,27.0,30.00,NNW,330,0.0,3.0,32,0.00,,,0.00,weatherlink.com 1.10,2013-11-09 19:39:00,
2013-11-09 12:54:00,56.2,27.0,30.00,West,268,2.0,4.0,33,0.00,,,0.00,weatherlink.com 1.10,2013-11-09 19:54:00,
2013-11-09 13:09:00,55.6,27.0,30.00,NW,311,1.0,5.0,33,0.00,,,0.00,weatherlink.com 1.10,2013-11-09 20:09:00,
2013-11-09 13:24:00,55.4,27.0,30.00,NNE,29,1.0,5.0,33,0.00,,,0.00,weatherlink.com 1.10,2013-11-09 20:24:00,
2013-11-09 13:39:00,57.4,28.0,30.00,NE,34,0.0,3.0,32,0.00,,,0.00,weatherlink.com 1.10,2013-11-09 20:39:00,
2013-11-09 13:54:00,58.6,27.0,30.00,NE,45,1.0,6.0,30,0.00,,,0.00,weatherlink.com 1.10,2013-11-09 20:54:00,
2013-11-09 14:09:00,59.7,28.0,30.00,NW,314,2.0,5.0,30,0.00,,,0.00,weatherlink.com 1.10,2013-11-09 21:09:00,
2013-11-09 14:24:00,58.8,27.0,29.99,WNW,302,7.0,7.0,30,0.00,,,0.00,weatherlink.com 1.10,2013-11-09 21:24:00,
2013-11-09 14:39:00,59.7,28.0,30.00,SSE,148,0.0,3.0,30,0.00,,,0.00,weatherlink.com 1.10,2013-11-09 21:39:00,
2013-11-09 14:54:00,57.8,27.0,30.00,WNW,288,5.0,6.0,31,0.00,,,0.00,weatherlink.com 1.10,2013-11-09 21:54:00,
2013-11-09 15:09:00,56.0,28.0,30.01,NW,318,1.0,4.0,34,0.00,,,0.00,weatherlink.com 1.10,2013-11-09 22:09:00,
2013-11-09 15:24:00,56.1,28.0,30.01,NW,319,1.0,6.0,34,0.00,,,0.00,weatherlink.com 1.10,2013-11-09 22:24:00,
2013-11-09 15:39:00,56.3,28.0,30.01,NW,307,1.0,6.0,34,0.00,,,0.00,weatherlink.com 1.10,2013-11-09 22:39:00,
2013-11-09 15:54:00,53.0,27.0,30.02,NNW,332,1.0,5.0,37,0.00,,,0.00,weatherlink.com 1.10,2013-11-09 22:54:00,
2013-11-09 16:09:00,51.3,28.0,30.02,NNW,330,0.0,4.0,40,0.00,,,0.00,weatherlink.com 1.10,2013-11-09 23:09:00,
2013-11-09 16:24:00,49.9,28.0,30.03,NW,318,0.0,1.0,43,0.00,,,0.00,weatherlink.com 1.10,2013-11-09 23:24:00,
2013-11-09 16:39:00,48.4,28.0,30.04,NNW,337,0.0,2.0,46,0.00,,,0.00,weatherlink.com 1.10,2013-11-09 23:39:00,
2013-11-09 16:54:00,47.1,29.0,30.04,NNE,27,0.0,3.0,49,0.00,,,0.00,weatherlink.com 1.10,2013-11-09 23:54:00,
2013-11-09 17:09:00,45.8,29.0,30.05,NNW,332,0.0,3.0,52,0.00,,,0.00,weatherlink.com 1.10,2013-11-10 00:09:00,
2013-11-09 17:24:00,43.5,29.0,30.06,NNE,14,4.0,8.0,56,0.00,,,0.00,weatherlink.com 1.10,2013-11-10 00:24:00,
2013-11-09 17:39:00,42.8,28.0,30.07,WSW,257,3.0,8.0,57,0.00,,,0.00,weatherlink.com 1.10,2013-11-10 00:39:00,
2013-11-09 17:54:00,41.6,28.0,30.08,NE,43,1.0,7.0,59,0.00,,,0.00,weatherlink.com 1.10,2013-11-10 00:54:00,
2013-11-09 18:09:00,40.8,28.0,30.08,NNW,347,2.0,6.0,61,0.00,,,0.00,weatherlink.com 1.10,2013-11-10 01:09:00,
2013-11-09 18:24:00,39.9,28.0,30.09,ENE,58,0.0,4.0,62,0.00,,,0.00,weatherlink.com 1.10,2013-11-10 01:24:00,
2013-11-09 18:39:00,38.4,27.0,30.10,SSE,148,0.0,0.0,65,0.00,,,0.00,weatherlink.com 1.10,2013-11-10 01:39:00,
2013-11-09 18:54:00,37.3,27.0,30.10,SE,136,0.0,1.0,67,0.00,,,0.00,weatherlink.com 1.10,2013-11-10 01:54:00,
2013-11-09 19:09:00,36.0,27.0,30.11,SE,135,0.0,1.0,70,0.00,,,0.00,weatherlink.com 1.10,2013-11-10 02:09:00,
2013-11-09 19:24:00,35.1,27.0,30.11,SE,128,0.0,0.0,72,0.00,,,0.00,weatherlink.com 1.10,2013-11-10 02:24:00,
2013-11-09 19:39:00,34.1,27.0,30.11,SE,129,0.0,1.0,75,0.00,,,0.00,weatherlink.com 1.10,2013-11-10 02:39:00,
2013-11-09 19:55:00,33.9,27.0,30.12,ENE,67,0.0,0.0,75,0.00,,,0.00,weatherlink.com 1.10,2013-11-10 02:55:00,
2013-11-09 20:10:00,33.9,27.0,30.12,NNE,29,0.0,1.0,76,0.00,,,0.00,weatherlink.com 1.10,2013-11-10 03:10:00,
2013-11-09 20:25:00,34.4,27.0,30.14,NNE,13,0.0,1.0,75,0.00,,,0.00,weatherlink.com 1.10,2013-11-10 03:25:00,
2013-11-09 20:40:00,33.7,27.0,30.14,ESE,118,0.0,1.0,77,0.00,,,0.00,weatherlink.com 1.10,2013-11-10 03:40:00,
2013-11-09 20:55:00,33.5,27.0,30.15,ESE,112,0.0,0.0,77,0.00,,,0.00,weatherlink.com 1.10,2013-11-10 03:55:00,
2013-11-09 21:10:00,32.3,27.0,30.16,ESE,112,0.0,0.0,80,0.00,,,0.00,weatherlink.com 1.10,2013-11-10 04:10:00,
2013-11-09 21:25:00,31.9,27.0,30.16,ESE,112,0.0,0.0,81,0.00,,,0.00,weatherlink.com 1.10,2013-11-10 04:25:00,
2013-11-09 21:40:00,31.0,26.0,30.17,NNW,338,0.0,0.0,82,0.00,,,0.00,weatherlink.com 1.10,2013-11-10 04:40:00,
2013-11-09 21:55:00,31.2,26.0,30.17,NNE,22,0.0,1.0,81,0.00,,,0.00,weatherlink.com 1.10,2013-11-10 04:55:00,
2013-11-09 22:10:00,30.8,26.0,30.17,NW,318,0.0,1.0,82,0.00,,,0.00,weatherlink.com 1.10,2013-11-10 05:10:00,
2013-11-09 22:25:00,30.0,25.0,30.18,NW,315,0.0,0.0,83,0.00,,,0.00,weatherlink.com 1.10,2013-11-10 05:25:00,
2013-11-09 22:40:00,29.4,26.0,30.18,NW,314,0.0,0.0,85,0.00,,,0.00,weatherlink.com 1.10,2013-11-10 05:40:00,
2013-11-09 22:55:00,29.4,26.0,30.18,SE,126,0.0,0.0,85,0.00,,,0.00,weatherlink.com 1.10,2013-11-10 05:55:00,
2013-11-09 23:10:00,28.8,25.0,30.18,ESE,103,0.0,1.0,86,0.00,,,0.00,weatherlink.com 1.10,2013-11-10 06:10:00,
2013-11-09 23:25:00,28.9,25.0,30.17,ESE,117,0.0,0.0,86,0.00,,,0.00,weatherlink.com 1.10,2013-11-10 06:25:00,
2013-11-09 23:40:00,28.3,25.0,30.17,East,101,0.0,0.0,86,0.00,,,0.00,weatherlink.com 1.10,2013-11-10 06:40:00,
2013-11-09 23:55:00,27.2,24.0,30.16,East,101,0.0,0.0,88,0.00,,,0.00,weatherlink.com 1.10,2013-11-10 06:55:00,